sensor_id;sensor_type;location;lat;lon;timestamp;P1;durP1;ratioP1;P2;durP2;ratioP2
13171;SDS011;6651;53.200;10.432;2023-09-19T00:02:01;3.67;;;2.10;;
13171;SDS011;6651;53.200;10.432;2023-09-19T00:04:31;2.67;;;2.40;;
13171;SDS011;6651;53.200;10.432;2023-09-19T00:06:59;3.47;;;2.10;;
13171;SDS011;6651;53.200;10.432;2023-09-19T00:09:27;2.80;;;1.80;;
13171;SDS011;6651;53.200;10.432;2023-09-19T00:11:53;3.28;;;2.22;;
13171;SDS011;6651;53.200;10.432;2023-09-19T00:14:19;3.20;;;1.90;;
13171;SDS011;6651;53.200;10.432;2023-09-19T00:16:45;4.38;;;2.28;;
13171;SDS011;6651;53.200;10.432;2023-09-19T00:19:11;2.50;;;2.08;;
13171;SDS011;6651;53.200;10.432;2023-09-19T00:21:39;2.72;;;1.98;;
13171;SDS011;6651;53.200;10.432;2023-09-19T00:24:06;2.65;;;1.95;;
13171;SDS011;6651;53.200;10.432;2023-09-19T00:26:32;3.83;;;2.13;;
13171;SDS011;6651;53.200;10.432;2023-09-19T00:28:59;2.90;;;2.28;;
13171;SDS011;6651;53.200;10.432;2023-09-19T00:31:30;3.55;;;2.05;;
13171;SDS011;6651;53.200;10.432;2023-09-19T00:33:55;4.43;;;2.13;;
13171;SDS011;6651;53.200;10.432;2023-09-19T00:36:27;3.22;;;2.40;;
13171;SDS011;6651;53.200;10.432;2023-09-19T00:38:54;3.58;;;2.30;;
13171;SDS011;6651;53.200;10.432;2023-09-19T00:41:19;3.35;;;2.28;;
13171;SDS011;6651;53.200;10.432;2023-09-19T00:43:46;5.10;;;2.17;;
13171;SDS011;6651;53.200;10.432;2023-09-19T00:46:12;3.03;;;2.40;;
13171;SDS011;6651;53.200;10.432;2023-09-19T00:48:41;4.43;;;2.50;;
13171;SDS011;6651;53.200;10.432;2023-09-19T00:51:11;3.83;;;2.78;;
13171;SDS011;6651;53.200;10.432;2023-09-19T00:53:39;2.53;;;2.33;;
13171;SDS011;6651;53.200;10.432;2023-09-19T00:56:07;5.18;;;2.30;;
13171;SDS011;6651;53.200;10.432;2023-09-19T00:58:33;6.10;;;2.53;;
13171;SDS011;6651;53.200;10.432;2023-09-19T01:01:00;4.50;;;2.80;;
13171;SDS011;6651;53.200;10.432;2023-09-19T01:03:26;4.80;;;2.70;;
13171;SDS011;6651;53.200;10.432;2023-09-19T01:05:52;4.63;;;2.70;;
13171;SDS011;6651;53.200;10.432;2023-09-19T01:08:18;3.67;;;2.78;;
13171;SDS011;6651;53.200;10.432;2023-09-19T01:10:46;4.35;;;2.72;;
13171;SDS011;6651;53.200;10.432;2023-09-19T01:13:28;4.25;;;2.85;;
13171;SDS011;6651;53.200;10.432;2023-09-19T01:29:34;4.43;;;3.05;;
13171;SDS011;6651;53.200;10.432;2023-09-19T01:32:10;4.30;;;3.03;;
13171;SDS011;6651;53.200;10.432;2023-09-19T01:37:18;6.03;;;3.30;;
13171;SDS011;6651;53.200;10.432;2023-09-19T01:39:49;6.25;;;3.30;;
13171;SDS011;6651;53.200;10.432;2023-09-19T01:44:51;6.10;;;3.70;;
13171;SDS011;6651;53.200;10.432;2023-09-19T01:47:43;7.20;;;3.50;;
13171;SDS011;6651;53.200;10.432;2023-09-19T01:50:26;5.63;;;3.72;;
13171;SDS011;6651;53.200;10.432;2023-09-19T01:52:59;6.10;;;3.83;;
13171;SDS011;6651;53.200;10.432;2023-09-19T01:55:46;8.43;;;3.70;;
13171;SDS011;6651;53.200;10.432;2023-09-19T02:00:58;6.80;;;3.97;;
13171;SDS011;6651;53.200;10.432;2023-09-19T02:03:25;7.22;;;4.03;;
13171;SDS011;6651;53.200;10.432;2023-09-19T02:05:53;7.30;;;3.63;;
13171;SDS011;6651;53.200;10.432;2023-09-19T02:08:20;7.10;;;3.90;;
13171;SDS011;6651;53.200;10.432;2023-09-19T02:10:50;6.35;;;3.55;;
13171;SDS011;6651;53.200;10.432;2023-09-19T02:13:18;7.35;;;3.80;;
13171;SDS011;6651;53.200;10.432;2023-09-19T02:15:45;4.80;;;3.63;;
13171;SDS011;6651;53.200;10.432;2023-09-19T02:18:14;6.75;;;3.50;;
13171;SDS011;6651;53.200;10.432;2023-09-19T02:20:40;4.95;;;3.45;;
13171;SDS011;6651;53.200;10.432;2023-09-19T02:23:05;5.28;;;3.95;;
13171;SDS011;6651;53.200;10.432;2023-09-19T02:25:33;7.55;;;3.95;;
13171;SDS011;6651;53.200;10.432;2023-09-19T02:27:58;6.78;;;3.60;;
13171;SDS011;6651;53.200;10.432;2023-09-19T02:30:26;6.50;;;3.65;;
13171;SDS011;6651;53.200;10.432;2023-09-19T02:32:51;6.72;;;3.72;;
13171;SDS011;6651;53.200;10.432;2023-09-19T02:35:17;5.30;;;3.45;;
13171;SDS011;6651;53.200;10.432;2023-09-19T02:37:46;4.75;;;3.38;;
13171;SDS011;6651;53.200;10.432;2023-09-19T02:40:12;7.18;;;3.53;;
13171;SDS011;6651;53.200;10.432;2023-09-19T02:42:44;8.95;;;3.85;;
13171;SDS011;6651;53.200;10.432;2023-09-19T02:45:16;5.50;;;3.20;;
13171;SDS011;6651;53.200;10.432;2023-09-19T02:47:43;7.07;;;3.42;;
13171;SDS011;6651;53.200;10.432;2023-09-19T02:50:09;5.82;;;3.45;;
13171;SDS011;6651;53.200;10.432;2023-09-19T02:52:36;5.57;;;3.45;;
13171;SDS011;6651;53.200;10.432;2023-09-19T02:55:02;6.45;;;3.30;;
13171;SDS011;6651;53.200;10.432;2023-09-19T02:57:29;7.00;;;3.40;;
13171;SDS011;6651;53.200;10.432;2023-09-19T02:59:58;6.65;;;3.38;;
13171;SDS011;6651;53.200;10.432;2023-09-19T03:02:25;5.93;;;3.40;;
13171;SDS011;6651;53.200;10.432;2023-09-19T03:04:52;6.63;;;3.53;;
13171;SDS011;6651;53.200;10.432;2023-09-19T03:07:18;7.28;;;3.58;;
13171;SDS011;6651;53.200;10.432;2023-09-19T03:09:44;8.77;;;3.95;;
13171;SDS011;6651;53.200;10.432;2023-09-19T03:12:10;7.80;;;3.80;;
13171;SDS011;6651;53.200;10.432;2023-09-19T03:14:36;9.95;;;3.78;;
13171;SDS011;6651;53.200;10.432;2023-09-19T03:17:02;7.43;;;3.58;;
13171;SDS011;6651;53.200;10.432;2023-09-19T03:19:30;7.25;;;3.22;;
13171;SDS011;6651;53.200;10.432;2023-09-19T03:21:59;6.75;;;3.33;;
13171;SDS011;6651;53.200;10.432;2023-09-19T03:24:25;6.15;;;3.08;;
13171;SDS011;6651;53.200;10.432;2023-09-19T03:26:51;6.43;;;2.90;;
13171;SDS011;6651;53.200;10.432;2023-09-19T03:29:17;5.72;;;2.53;;
13171;SDS011;6651;53.200;10.432;2023-09-19T03:31:43;5.75;;;2.40;;
13171;SDS011;6651;53.200;10.432;2023-09-19T03:34:09;3.28;;;2.17;;
13171;SDS011;6651;53.200;10.432;2023-09-19T03:36:35;5.25;;;2.50;;
13171;SDS011;6651;53.200;10.432;2023-09-19T03:39:01;4.47;;;2.47;;
13171;SDS011;6651;53.200;10.432;2023-09-19T03:41:30;4.25;;;2.30;;
13171;SDS011;6651;53.200;10.432;2023-09-19T03:43:56;5.78;;;2.30;;
13171;SDS011;6651;53.200;10.432;2023-09-19T03:46:22;5.18;;;2.72;;
13171;SDS011;6651;53.200;10.432;2023-09-19T03:48:47;4.85;;;2.50;;
13171;SDS011;6651;53.200;10.432;2023-09-19T03:51:13;4.22;;;2.30;;
13171;SDS011;6651;53.200;10.432;2023-09-19T03:53:39;5.55;;;2.30;;
13171;SDS011;6651;53.200;10.432;2023-09-19T03:56:04;6.10;;;2.63;;
13171;SDS011;6651;53.200;10.432;2023-09-19T03:58:30;5.55;;;2.70;;
13171;SDS011;6651;53.200;10.432;2023-09-19T04:00:56;11.32;;;3.00;;
13171;SDS011;6651;53.200;10.432;2023-09-19T04:03:23;5.88;;;3.10;;
13171;SDS011;6651;53.200;10.432;2023-09-19T04:05:49;7.60;;;3.10;;
13171;SDS011;6651;53.200;10.432;2023-09-19T04:08:15;6.28;;;2.80;;
13171;SDS011;6651;53.200;10.432;2023-09-19T04:10:41;5.70;;;3.10;;
13171;SDS011;6651;53.200;10.432;2023-09-19T04:13:08;6.45;;;2.85;;
13171;SDS011;6651;53.200;10.432;2023-09-19T04:15:34;6.68;;;2.90;;
13171;SDS011;6651;53.200;10.432;2023-09-19T04:17:59;6.97;;;3.30;;
13171;SDS011;6651;53.200;10.432;2023-09-19T04:20:25;5.60;;;2.92;;
13171;SDS011;6651;53.200;10.432;2023-09-19T04:22:51;7.97;;;2.83;;
13171;SDS011;6651;53.200;10.432;2023-09-19T04:25:17;6.78;;;2.72;;
13171;SDS011;6651;53.200;10.432;2023-09-19T04:27:43;5.22;;;3.00;;
13171;SDS011;6651;53.200;10.432;2023-09-19T04:30:09;4.10;;;2.47;;
13171;SDS011;6651;53.200;10.432;2023-09-19T04:32:36;6.35;;;2.60;;
13171;SDS011;6651;53.200;10.432;2023-09-19T04:35:06;5.95;;;2.45;;
13171;SDS011;6651;53.200;10.432;2023-09-19T04:37:33;5.25;;;2.60;;
13171;SDS011;6651;53.200;10.432;2023-09-19T04:40:08;8.07;;;2.65;;
13171;SDS011;6651;53.200;10.432;2023-09-19T04:42:40;5.90;;;2.60;;
13171;SDS011;6651;53.200;10.432;2023-09-19T04:45:07;4.88;;;2.30;;
13171;SDS011;6651;53.200;10.432;2023-09-19T04:47:34;5.05;;;2.22;;
13171;SDS011;6651;53.200;10.432;2023-09-19T04:50:01;4.95;;;2.53;;
13171;SDS011;6651;53.200;10.432;2023-09-19T04:52:26;8.02;;;2.88;;
13171;SDS011;6651;53.200;10.432;2023-09-19T04:54:55;6.15;;;2.83;;
13171;SDS011;6651;53.200;10.432;2023-09-19T04:57:21;6.07;;;2.85;;
13171;SDS011;6651;53.200;10.432;2023-09-19T04:59:47;6.60;;;2.70;;
13171;SDS011;6651;53.200;10.432;2023-09-19T05:02:13;5.80;;;2.38;;
13171;SDS011;6651;53.200;10.432;2023-09-19T05:04:39;7.82;;;3.00;;
13171;SDS011;6651;53.200;10.432;2023-09-19T05:07:04;8.75;;;2.50;;
13171;SDS011;6651;53.200;10.432;2023-09-19T05:09:30;8.07;;;3.05;;
13171;SDS011;6651;53.200;10.432;2023-09-19T05:11:59;6.40;;;2.42;;
13171;SDS011;6651;53.200;10.432;2023-09-19T05:14:24;7.05;;;3.15;;
13171;SDS011;6651;53.200;10.432;2023-09-19T05:16:50;9.20;;;2.70;;
13171;SDS011;6651;53.200;10.432;2023-09-19T05:19:15;6.32;;;2.70;;
13171;SDS011;6651;53.200;10.432;2023-09-19T05:21:42;6.18;;;2.60;;
13171;SDS011;6651;53.200;10.432;2023-09-19T05:24:07;7.28;;;2.60;;
13171;SDS011;6651;53.200;10.432;2023-09-19T05:26:33;5.22;;;2.47;;
13171;SDS011;6651;53.200;10.432;2023-09-19T05:28:59;8.80;;;3.15;;
13171;SDS011;6651;53.200;10.432;2023-09-19T05:31:26;7.15;;;2.67;;
13171;SDS011;6651;53.200;10.432;2023-09-19T05:33:52;5.30;;;2.72;;
13171;SDS011;6651;53.200;10.432;2023-09-19T05:36:20;9.88;;;3.10;;
13171;SDS011;6651;53.200;10.432;2023-09-19T05:38:46;8.77;;;3.10;;
13171;SDS011;6651;53.200;10.432;2023-09-19T05:41:15;7.22;;;2.90;;
13171;SDS011;6651;53.200;10.432;2023-09-19T05:43:41;5.82;;;2.88;;
13171;SDS011;6651;53.200;10.432;2023-09-19T05:46:07;7.90;;;3.03;;
13171;SDS011;6651;53.200;10.432;2023-09-19T05:48:33;7.60;;;3.00;;
13171;SDS011;6651;53.200;10.432;2023-09-19T05:50:59;8.30;;;2.88;;
13171;SDS011;6651;53.200;10.432;2023-09-19T05:53:26;6.70;;;2.90;;
13171;SDS011;6651;53.200;10.432;2023-09-19T05:55:53;8.35;;;3.40;;
13171;SDS011;6651;53.200;10.432;2023-09-19T05:58:20;6.72;;;3.20;;
13171;SDS011;6651;53.200;10.432;2023-09-19T06:00:46;6.88;;;3.05;;
13171;SDS011;6651;53.200;10.432;2023-09-19T06:03:13;8.93;;;3.00;;
13171;SDS011;6651;53.200;10.432;2023-09-19T06:05:39;8.27;;;3.20;;
13171;SDS011;6651;53.200;10.432;2023-09-19T06:08:05;9.25;;;3.30;;
13171;SDS011;6651;53.200;10.432;2023-09-19T06:10:32;9.48;;;3.38;;
13171;SDS011;6651;53.200;10.432;2023-09-19T06:12:59;7.97;;;3.30;;
13171;SDS011;6651;53.200;10.432;2023-09-19T06:15:29;8.75;;;3.03;;
13171;SDS011;6651;53.200;10.432;2023-09-19T06:17:57;10.75;;;3.20;;
13171;SDS011;6651;53.200;10.432;2023-09-19T06:20:24;7.05;;;3.22;;
13171;SDS011;6651;53.200;10.432;2023-09-19T06:22:51;7.47;;;3.33;;
13171;SDS011;6651;53.200;10.432;2023-09-19T06:25:17;8.15;;;3.08;;
13171;SDS011;6651;53.200;10.432;2023-09-19T06:27:50;9.02;;;3.10;;
13171;SDS011;6651;53.200;10.432;2023-09-19T06:30:18;11.48;;;3.08;;
13171;SDS011;6651;53.200;10.432;2023-09-19T06:32:45;10.13;;;3.70;;
13171;SDS011;6651;53.200;10.432;2023-09-19T06:35:11;9.20;;;3.08;;
13171;SDS011;6651;53.200;10.432;2023-09-19T06:37:38;8.48;;;3.05;;
13171;SDS011;6651;53.200;10.432;2023-09-19T06:40:08;8.18;;;3.45;;
13171;SDS011;6651;53.200;10.432;2023-09-19T06:42:46;10.45;;;3.25;;
13171;SDS011;6651;53.200;10.432;2023-09-19T06:45:15;9.07;;;3.53;;
13171;SDS011;6651;53.200;10.432;2023-09-19T06:47:47;8.20;;;3.53;;
13171;SDS011;6651;53.200;10.432;2023-09-19T06:50:15;7.13;;;3.30;;
13171;SDS011;6651;53.200;10.432;2023-09-19T06:52:45;11.05;;;3.30;;
13171;SDS011;6651;53.200;10.432;2023-09-19T06:55:15;8.43;;;3.55;;
13171;SDS011;6651;53.200;10.432;2023-09-19T06:57:42;7.97;;;3.03;;
13171;SDS011;6651;53.200;10.432;2023-09-19T07:00:10;10.70;;;3.50;;
13171;SDS011;6651;53.200;10.432;2023-09-19T07:02:43;8.95;;;3.35;;
13171;SDS011;6651;53.200;10.432;2023-09-19T07:05:09;8.30;;;3.17;;
13171;SDS011;6651;53.200;10.432;2023-09-19T07:07:35;9.20;;;3.10;;
13171;SDS011;6651;53.200;10.432;2023-09-19T07:10:01;7.30;;;2.88;;
13171;SDS011;6651;53.200;10.432;2023-09-19T07:12:30;9.68;;;3.30;;
13171;SDS011;6651;53.200;10.432;2023-09-19T07:14:57;7.80;;;3.55;;
13171;SDS011;6651;53.200;10.432;2023-09-19T07:17:23;6.35;;;3.17;;
13171;SDS011;6651;53.200;10.432;2023-09-19T07:19:49;6.57;;;3.15;;
13171;SDS011;6651;53.200;10.432;2023-09-19T07:22:15;7.95;;;3.17;;
13171;SDS011;6651;53.200;10.432;2023-09-19T07:24:41;9.35;;;3.30;;
13171;SDS011;6651;53.200;10.432;2023-09-19T07:27:06;12.18;;;3.83;;
13171;SDS011;6651;53.200;10.432;2023-09-19T07:29:32;7.47;;;3.08;;
13171;SDS011;6651;53.200;10.432;2023-09-19T07:31:58;9.80;;;3.17;;
13171;SDS011;6651;53.200;10.432;2023-09-19T07:34:23;8.32;;;3.58;;
13171;SDS011;6651;53.200;10.432;2023-09-19T07:36:49;10.05;;;4.18;;
13171;SDS011;6651;53.200;10.432;2023-09-19T07:39:15;8.93;;;3.95;;
13171;SDS011;6651;53.200;10.432;2023-09-19T07:41:41;6.78;;;3.10;;
13171;SDS011;6651;53.200;10.432;2023-09-19T07:44:07;8.43;;;3.47;;
13171;SDS011;6651;53.200;10.432;2023-09-19T07:46:34;10.45;;;3.70;;
13171;SDS011;6651;53.200;10.432;2023-09-19T07:49:00;7.78;;;3.67;;
13171;SDS011;6651;53.200;10.432;2023-09-19T07:51:26;9.75;;;4.05;;
13171;SDS011;6651;53.200;10.432;2023-09-19T07:53:52;8.70;;;3.67;;
13171;SDS011;6651;53.200;10.432;2023-09-19T07:56:18;11.43;;;4.05;;
13171;SDS011;6651;53.200;10.432;2023-09-19T07:58:45;8.65;;;4.00;;
13171;SDS011;6651;53.200;10.432;2023-09-19T08:01:11;8.45;;;3.90;;
13171;SDS011;6651;53.200;10.432;2023-09-19T08:03:38;11.10;;;3.97;;
13171;SDS011;6651;53.200;10.432;2023-09-19T08:06:06;13.23;;;4.07;;
13171;SDS011;6651;53.200;10.432;2023-09-19T08:08:32;11.10;;;3.95;;
13171;SDS011;6651;53.200;10.432;2023-09-19T08:11:02;9.00;;;3.67;;
13171;SDS011;6651;53.200;10.432;2023-09-19T08:13:39;12.27;;;4.20;;
13171;SDS011;6651;53.200;10.432;2023-09-19T08:16:08;9.13;;;3.40;;
13171;SDS011;6651;53.200;10.432;2023-09-19T08:18:35;8.73;;;3.40;;
13171;SDS011;6651;53.200;10.432;2023-09-19T08:21:02;11.73;;;3.58;;
13171;SDS011;6651;53.200;10.432;2023-09-19T08:23:28;8.63;;;3.13;;
13171;SDS011;6651;53.200;10.432;2023-09-19T08:25:57;8.65;;;3.20;;
13171;SDS011;6651;53.200;10.432;2023-09-19T08:28:23;7.82;;;3.13;;
13171;SDS011;6651;53.200;10.432;2023-09-19T08:30:49;6.85;;;2.80;;
13171;SDS011;6651;53.200;10.432;2023-09-19T08:33:15;8.07;;;2.80;;
13171;SDS011;6651;53.200;10.432;2023-09-19T08:35:41;6.85;;;2.63;;
13171;SDS011;6651;53.200;10.432;2023-09-19T08:38:08;9.18;;;2.85;;
13171;SDS011;6651;53.200;10.432;2023-09-19T08:40:38;8.52;;;3.10;;
13171;SDS011;6651;53.200;10.432;2023-09-19T08:43:06;8.43;;;2.80;;
13171;SDS011;6651;53.200;10.432;2023-09-19T08:45:32;7.57;;;2.50;;
13171;SDS011;6651;53.200;10.432;2023-09-19T08:50:51;11.40;;;3.63;;
13171;SDS011;6651;53.200;10.432;2023-09-19T08:53:42;8.02;;;2.53;;
13171;SDS011;6651;53.200;10.432;2023-09-19T08:56:17;9.23;;;2.95;;
13171;SDS011;6651;53.200;10.432;2023-09-19T08:58:48;10.32;;;2.85;;
13171;SDS011;6651;53.200;10.432;2023-09-19T09:01:23;8.40;;;2.97;;
13171;SDS011;6651;53.200;10.432;2023-09-19T09:03:52;7.45;;;2.90;;
13171;SDS011;6651;53.200;10.432;2023-09-19T09:06:19;11.05;;;3.13;;
13171;SDS011;6651;53.200;10.432;2023-09-19T09:08:45;8.57;;;2.83;;
13171;SDS011;6651;53.200;10.432;2023-09-19T09:11:12;6.45;;;2.55;;
13171;SDS011;6651;53.200;10.432;2023-09-19T09:13:39;7.25;;;2.58;;
13171;SDS011;6651;53.200;10.432;2023-09-19T09:16:06;7.43;;;2.70;;
13171;SDS011;6651;53.200;10.432;2023-09-19T09:18:33;7.18;;;2.80;;
13171;SDS011;6651;53.200;10.432;2023-09-19T09:20:59;4.57;;;2.20;;
13171;SDS011;6651;53.200;10.432;2023-09-19T09:23:26;8.70;;;2.80;;
13171;SDS011;6651;53.200;10.432;2023-09-19T09:25:54;7.88;;;2.60;;
13171;SDS011;6651;53.200;10.432;2023-09-19T09:28:25;7.75;;;3.00;;
13171;SDS011;6651;53.200;10.432;2023-09-19T09:30:53;7.15;;;2.70;;
13171;SDS011;6651;53.200;10.432;2023-09-19T09:33:20;6.10;;;2.63;;
13171;SDS011;6651;53.200;10.432;2023-09-19T09:35:52;7.80;;;2.80;;
13171;SDS011;6651;53.200;10.432;2023-09-19T09:38:22;7.45;;;2.60;;
13171;SDS011;6651;53.200;10.432;2023-09-19T09:40:58;7.03;;;2.45;;
13171;SDS011;6651;53.200;10.432;2023-09-19T09:43:32;6.78;;;2.72;;
13171;SDS011;6651;53.200;10.432;2023-09-19T09:51:40;7.70;;;2.40;;
13171;SDS011;6651;53.200;10.432;2023-09-19T09:54:22;8.15;;;2.80;;
13171;SDS011;6651;53.200;10.432;2023-09-19T09:56:59;5.85;;;2.22;;
13171;SDS011;6651;53.200;10.432;2023-09-19T09:59:45;6.40;;;2.60;;
13171;SDS011;6651;53.200;10.432;2023-09-19T10:02:28;7.85;;;2.47;;
13171;SDS011;6651;53.200;10.432;2023-09-19T10:04:57;8.75;;;2.72;;
13171;SDS011;6651;53.200;10.432;2023-09-19T10:07:32;6.15;;;2.45;;
13171;SDS011;6651;53.200;10.432;2023-09-19T10:10:01;7.85;;;2.60;;
13171;SDS011;6651;53.200;10.432;2023-09-19T10:12:47;7.60;;;2.47;;
13171;SDS011;6651;53.200;10.432;2023-09-19T10:15:17;7.28;;;2.58;;
13171;SDS011;6651;53.200;10.432;2023-09-19T10:17:45;8.73;;;2.80;;
13171;SDS011;6651;53.200;10.432;2023-09-19T10:20:12;7.10;;;2.53;;
13171;SDS011;6651;53.200;10.432;2023-09-19T10:23:00;5.30;;;2.50;;
13171;SDS011;6651;53.200;10.432;2023-09-19T10:25:28;6.55;;;2.90;;
13171;SDS011;6651;53.200;10.432;2023-09-19T10:27:55;7.00;;;2.50;;
13171;SDS011;6651;53.200;10.432;2023-09-19T10:30:24;6.40;;;2.80;;
13171;SDS011;6651;53.200;10.432;2023-09-19T10:33:01;6.78;;;2.75;;
13171;SDS011;6651;53.200;10.432;2023-09-19T10:35:28;6.32;;;2.30;;
13171;SDS011;6651;53.200;10.432;2023-09-19T10:37:57;8.13;;;2.63;;
13171;SDS011;6651;53.200;10.432;2023-09-19T10:40:24;6.15;;;2.47;;
13171;SDS011;6651;53.200;10.432;2023-09-19T10:43:05;8.77;;;2.80;;
13171;SDS011;6651;53.200;10.432;2023-09-19T10:45:32;6.72;;;2.55;;
13171;SDS011;6651;53.200;10.432;2023-09-19T10:47:59;7.25;;;2.60;;
13171;SDS011;6651;53.200;10.432;2023-09-19T10:50:26;8.10;;;2.80;;
13171;SDS011;6651;53.200;10.432;2023-09-19T10:52:56;6.50;;;2.40;;
13171;SDS011;6651;53.200;10.432;2023-09-19T10:55:30;7.00;;;2.35;;
13171;SDS011;6651;53.200;10.432;2023-09-19T10:57:58;6.60;;;2.33;;
13171;SDS011;6651;53.200;10.432;2023-09-19T11:00:25;6.25;;;2.58;;
13171;SDS011;6651;53.200;10.432;2023-09-19T11:05:36;6.53;;;2.58;;
13171;SDS011;6651;53.200;10.432;2023-09-19T11:08:08;8.48;;;2.50;;
13171;SDS011;6651;53.200;10.432;2023-09-19T11:13:25;6.70;;;2.60;;
13171;SDS011;6651;53.200;10.432;2023-09-19T11:27:10;7.90;;;2.50;;
13171;SDS011;6651;53.200;10.432;2023-09-19T11:29:38;5.57;;;2.25;;
13171;SDS011;6651;53.200;10.432;2023-09-19T11:32:05;8.00;;;2.35;;
13171;SDS011;6651;53.200;10.432;2023-09-19T11:39:37;9.63;;;2.70;;
13171;SDS011;6651;53.200;10.432;2023-09-19T11:48:15;4.95;;;2.42;;
13171;SDS011;6651;53.200;10.432;2023-09-19T11:50:43;7.95;;;2.50;;
13171;SDS011;6651;53.200;10.432;2023-09-19T11:53:12;7.18;;;2.63;;
13171;SDS011;6651;53.200;10.432;2023-09-19T11:55:39;6.97;;;2.50;;
13171;SDS011;6651;53.200;10.432;2023-09-19T11:58:08;7.00;;;2.50;;
13171;SDS011;6651;53.200;10.432;2023-09-19T12:00:37;7.55;;;2.42;;
13171;SDS011;6651;53.200;10.432;2023-09-19T12:03:07;7.78;;;2.78;;
13171;SDS011;6651;53.200;10.432;2023-09-19T12:05:34;5.97;;;2.33;;
13171;SDS011;6651;53.200;10.432;2023-09-19T12:08:02;7.68;;;2.55;;
13171;SDS011;6651;53.200;10.432;2023-09-19T12:10:34;6.15;;;2.72;;
13171;SDS011;6651;53.200;10.432;2023-09-19T12:13:20;6.50;;;2.70;;
13171;SDS011;6651;53.200;10.432;2023-09-19T12:15:46;6.78;;;2.67;;
13171;SDS011;6651;53.200;10.432;2023-09-19T12:18:27;7.60;;;2.83;;
13171;SDS011;6651;53.200;10.432;2023-09-19T12:20:54;7.25;;;2.45;;
13171;SDS011;6651;53.200;10.432;2023-09-19T12:23:22;6.55;;;2.60;;
13171;SDS011;6651;53.200;10.432;2023-09-19T12:25:48;5.18;;;2.50;;
13171;SDS011;6651;53.200;10.432;2023-09-19T12:28:18;6.78;;;2.75;;
13171;SDS011;6651;53.200;10.432;2023-09-19T12:30:43;6.97;;;2.67;;
13171;SDS011;6651;53.200;10.432;2023-09-19T12:33:19;8.85;;;2.70;;
13171;SDS011;6651;53.200;10.432;2023-09-19T12:35:46;7.78;;;2.83;;
13171;SDS011;6651;53.200;10.432;2023-09-19T12:38:25;10.05;;;2.80;;
13171;SDS011;6651;53.200;10.432;2023-09-19T12:40:53;8.32;;;2.60;;
13171;SDS011;6651;53.200;10.432;2023-09-19T12:43:21;9.05;;;3.15;;
13171;SDS011;6651;53.200;10.432;2023-09-19T12:45:48;6.63;;;2.95;;
13171;SDS011;6651;53.200;10.432;2023-09-19T12:48:23;7.13;;;2.90;;
13171;SDS011;6651;53.200;10.432;2023-09-19T12:51:03;5.95;;;2.92;;
13171;SDS011;6651;53.200;10.432;2023-09-19T12:53:42;8.82;;;3.00;;
13171;SDS011;6651;53.200;10.432;2023-09-19T12:56:11;7.18;;;2.63;;
13171;SDS011;6651;53.200;10.432;2023-09-19T12:58:54;10.38;;;3.17;;
13171;SDS011;6651;53.200;10.432;2023-09-19T13:01:21;6.20;;;2.95;;
13171;SDS011;6651;53.200;10.432;2023-09-19T13:06:44;8.32;;;3.30;;
13171;SDS011;6651;53.200;10.432;2023-09-19T13:10:58;7.78;;;2.90;;
13171;SDS011;6651;53.200;10.432;2023-09-19T13:13:32;7.25;;;2.97;;
13171;SDS011;6651;53.200;10.432;2023-09-19T13:15:58;9.80;;;3.22;;
13171;SDS011;6651;53.200;10.432;2023-09-19T13:18:26;7.07;;;3.55;;
13171;SDS011;6651;53.200;10.432;2023-09-19T13:21:11;7.90;;;3.22;;
13171;SDS011;6651;53.200;10.432;2023-09-19T13:23:47;6.85;;;2.70;;
13171;SDS011;6651;53.200;10.432;2023-09-19T13:26:32;7.22;;;2.80;;
13171;SDS011;6651;53.200;10.432;2023-09-19T13:28:59;8.60;;;3.60;;
13171;SDS011;6651;53.200;10.432;2023-09-19T13:31:24;7.53;;;3.00;;
13171;SDS011;6651;53.200;10.432;2023-09-19T13:33:50;6.13;;;2.85;;
13171;SDS011;6651;53.200;10.432;2023-09-19T13:36:17;8.80;;;3.10;;
13171;SDS011;6651;53.200;10.432;2023-09-19T13:38:43;9.25;;;3.00;;
13171;SDS011;6651;53.200;10.432;2023-09-19T13:41:09;8.48;;;2.88;;
13171;SDS011;6651;53.200;10.432;2023-09-19T13:43:36;6.45;;;2.72;;
13171;SDS011;6651;53.200;10.432;2023-09-19T13:46:03;8.10;;;3.15;;
13171;SDS011;6651;53.200;10.432;2023-09-19T13:48:30;7.43;;;2.90;;
13171;SDS011;6651;53.200;10.432;2023-09-19T13:50:56;7.78;;;3.10;;
13171;SDS011;6651;53.200;10.432;2023-09-19T13:53:21;6.70;;;2.45;;
13171;SDS011;6651;53.200;10.432;2023-09-19T13:55:47;7.55;;;2.80;;
13171;SDS011;6651;53.200;10.432;2023-09-19T13:58:16;8.32;;;2.70;;
13171;SDS011;6651;53.200;10.432;2023-09-19T14:00:41;7.78;;;3.38;;
13171;SDS011;6651;53.200;10.432;2023-09-19T14:03:08;7.35;;;2.88;;
13171;SDS011;6651;53.200;10.432;2023-09-19T14:05:35;4.95;;;2.60;;
13171;SDS011;6651;53.200;10.432;2023-09-19T14:08:01;7.55;;;3.20;;
13171;SDS011;6651;53.200;10.432;2023-09-19T14:10:28;8.00;;;3.35;;
13171;SDS011;6651;53.200;10.432;2023-09-19T14:12:56;9.20;;;3.30;;
13171;SDS011;6651;53.200;10.432;2023-09-19T14:15:25;7.40;;;3.30;;
13171;SDS011;6651;53.200;10.432;2023-09-19T14:17:56;8.88;;;3.40;;
13171;SDS011;6651;53.200;10.432;2023-09-19T14:20:22;9.60;;;3.40;;
13171;SDS011;6651;53.200;10.432;2023-09-19T14:22:48;10.77;;;2.92;;
13171;SDS011;6651;53.200;10.432;2023-09-19T14:25:14;7.03;;;3.25;;
13171;SDS011;6651;53.200;10.432;2023-09-19T14:27:39;5.07;;;2.83;;
13171;SDS011;6651;53.200;10.432;2023-09-19T14:30:06;9.50;;;3.33;;
13171;SDS011;6651;53.200;10.432;2023-09-19T14:32:32;6.55;;;3.00;;
13171;SDS011;6651;53.200;10.432;2023-09-19T14:34:58;6.82;;;2.78;;
13171;SDS011;6651;53.200;10.432;2023-09-19T14:37:24;6.90;;;2.70;;
13171;SDS011;6651;53.200;10.432;2023-09-19T14:39:50;6.68;;;3.00;;
13171;SDS011;6651;53.200;10.432;2023-09-19T14:42:16;8.13;;;3.10;;
13171;SDS011;6651;53.200;10.432;2023-09-19T14:44:43;8.57;;;3.28;;
13171;SDS011;6651;53.200;10.432;2023-09-19T14:47:08;6.72;;;2.90;;
13171;SDS011;6651;53.200;10.432;2023-09-19T14:49:34;6.72;;;2.92;;
13171;SDS011;6651;53.200;10.432;2023-09-19T14:52:03;8.55;;;3.13;;
13171;SDS011;6651;53.200;10.432;2023-09-19T14:54:29;8.68;;;3.00;;
13171;SDS011;6651;53.200;10.432;2023-09-19T14:56:56;6.40;;;3.15;;
13171;SDS011;6651;53.200;10.432;2023-09-19T14:59:31;8.95;;;3.00;;
13171;SDS011;6651;53.200;10.432;2023-09-19T15:01:57;8.50;;;3.38;;
13171;SDS011;6651;53.200;10.432;2023-09-19T15:04:23;5.78;;;3.05;;
13171;SDS011;6651;53.200;10.432;2023-09-19T15:06:49;9.05;;;3.20;;
13171;SDS011;6651;53.200;10.432;2023-09-19T15:09:16;6.97;;;3.20;;
13171;SDS011;6651;53.200;10.432;2023-09-19T15:11:44;9.23;;;3.38;;
13171;SDS011;6651;53.200;10.432;2023-09-19T15:14:09;8.00;;;3.05;;
13171;SDS011;6651;53.200;10.432;2023-09-19T15:16:35;11.25;;;3.10;;
13171;SDS011;6651;53.200;10.432;2023-09-19T15:19:00;8.85;;;3.40;;
13171;SDS011;6651;53.200;10.432;2023-09-19T15:21:26;9.77;;;3.15;;
13171;SDS011;6651;53.200;10.432;2023-09-19T15:23:52;7.50;;;3.00;;
13171;SDS011;6651;53.200;10.432;2023-09-19T15:26:17;5.95;;;2.85;;
13171;SDS011;6651;53.200;10.432;2023-09-19T15:28:46;6.63;;;3.08;;
13171;SDS011;6651;53.200;10.432;2023-09-19T15:31:13;6.93;;;3.03;;
13171;SDS011;6651;53.200;10.432;2023-09-19T15:33:39;10.13;;;2.90;;
13171;SDS011;6651;53.200;10.432;2023-09-19T15:38:32;6.93;;;2.95;;
13171;SDS011;6651;53.200;10.432;2023-09-19T15:41:26;9.57;;;2.95;;
13171;SDS011;6651;53.200;10.432;2023-09-19T15:43:57;7.25;;;2.85;;
13171;SDS011;6651;53.200;10.432;2023-09-19T15:46:26;6.40;;;2.90;;
13171;SDS011;6651;53.200;10.432;2023-09-19T15:48:53;7.72;;;2.92;;
13171;SDS011;6651;53.200;10.432;2023-09-19T15:51:18;7.75;;;2.75;;
13171;SDS011;6651;53.200;10.432;2023-09-19T15:53:45;9.25;;;3.15;;
13171;SDS011;6651;53.200;10.432;2023-09-19T15:56:13;8.38;;;3.38;;
13171;SDS011;6651;53.200;10.432;2023-09-19T15:58:46;7.90;;;3.20;;
13171;SDS011;6651;53.200;10.432;2023-09-19T16:01:13;9.50;;;3.20;;